Time;durP1;ratioP1;P1;durP2;ratioP2;P2;SDS_P1;SDS_P2;PMS_P1;PMS_P2;Temp;Humidity;BMP_temperature;BMP_pressure;BME280_temperature;BME280_humidity;BME280_pressure;Samples;Min_cycle;Max_cycle;Signal;HPM_P1;HPM_P2
2021/07/17 00:01:21;;;;;;;2.00;1.42;;;;;;;24.72;54.80;102901.59;5030647;28;20028;-64
2021/07/17 00:03:46;;;;;;;3.75;1.70;;;;;;;24.71;54.88;102892.72;5032040;28;20026;-65
2021/07/17 00:06:12;;;;;;;2.88;1.60;;;;;;;24.72;54.69;102893.53;5031761;28;20123;-65
2021/07/17 00:08:37;;;;;;;2.75;1.52;;;;;;;24.72;54.78;102893.53;5031790;28;20112;-65
2021/07/17 00:11:04;;;;;;;2.97;1.50;;;;;;;24.74;54.56;102891.50;5031467;28;20128;-65
2021/07/17 00:13:30;;;;;;;2.60;1.55;;;;;;;24.72;54.48;102891.69;5031827;28;20044;-65
2021/07/17 00:15:56;;;;;;;2.65;1.55;;;;;;;24.72;54.96;102894.38;5031571;28;20025;-65
2021/07/17 00:18:22;;;;;;;3.08;1.52;;;;;;;24.74;54.67;102894.19;5031966;28;20061;-65
2021/07/17 00:20:49;;;;;;;2.13;1.40;;;;;;;24.73;55.05;102898.72;5031900;28;20123;-65
2021/07/17 00:23:15;;;;;;;3.25;1.65;;;;;;;24.73;55.08;102903.25;5031025;28;20485;-65
2021/07/17 00:25:43;;;;;;;4.05;1.40;;;;;;;24.75;54.98;102898.53;5030036;28;20045;-65
2021/07/17 00:28:08;;;;;;;2.22;1.48;;;;;;;24.75;54.80;102898.53;5030216;28;20045;-65
2021/07/17 00:30:34;;;;;;;2.63;1.20;;;;;;;24.74;54.61;102903.06;5031769;28;20447;-65
2021/07/17 00:33:00;;;;;;;2.55;1.50;;;;;;;24.74;54.74;102897.72;5031433;28;20033;-65
2021/07/17 00:35:25;;;;;;;3.67;1.45;;;;;;;24.74;54.82;102900.41;5031127;28;20037;-65
2021/07/17 00:37:51;;;;;;;3.08;1.70;;;;;;;24.74;54.98;102896.88;5030264;28;20537;-65
2021/07/17 00:40:20;;;;;;;4.40;1.50;;;;;;;24.75;54.90;102902.06;5020523;28;20048;-65
2021/07/17 00:42:50;;;;;;;2.42;1.40;;;;;;;24.75;54.70;102901.22;5029012;28;20044;-65
2021/07/17 00:45:17;;;;;;;2.97;1.75;;;;;;;24.75;54.80;102904.75;5031284;28;20109;-65
2021/07/17 00:47:43;;;;;;;2.03;1.50;;;;;;;24.74;54.63;102894.19;5031263;28;20067;-65
2021/07/17 00:50:12;;;;;;;2.78;1.70;;;;;;;24.75;54.85;102899.38;5031116;28;20038;-65
2021/07/17 00:52:37;;;;;;;4.88;1.80;;;;;;;24.76;55.03;102897.53;5030486;28;20033;-65
2021/07/17 00:55:04;;;;;;;2.53;1.67;;;;;;;24.77;54.78;102901.88;5029669;28;20219;-65
2021/07/17 00:57:33;;;;;;;2.78;2.05;;;;;;;24.76;54.94;102901.03;5030907;28;20034;-65
2021/07/17 00:59:59;;;;;;;3.05;1.70;;;;;;;24.77;54.76;102909.94;5030749;28;20440;-65
2021/07/17 01:02:25;;;;;;;3.42;2.10;;;;;;;24.76;54.94;102906.41;5030957;28;20040;-65
2021/07/17 01:04:52;;;;;;;4.43;2.17;;;;;;;24.77;54.45;102908.09;5031736;28;20028;-65
2021/07/17 01:07:17;;;;;;;6.63;2.35;;;;;;;24.76;54.38;102903.72;5030497;28;20045;-65
2021/07/17 01:09:43;;;;;;;3.00;1.80;;;;;;;24.76;54.79;102903.72;5033291;28;20053;-65
2021/07/17 01:12:09;;;;;;;3.05;1.73;;;;;;;24.77;54.56;102904.56;5019630;28;20059;-65
2021/07/17 01:14:35;;;;;;;3.45;2.30;;;;;;;24.77;54.70;102905.44;5031865;28;20112;-65
2021/07/17 01:17:00;;;;;;;5.38;2.20;;;;;;;24.77;54.54;102902.75;5033012;28;20072;-65
2021/07/17 01:19:26;;;;;;;4.40;2.15;;;;;;;24.77;54.21;102901.88;5031926;28;20040;-65
2021/07/17 01:21:52;;;;;;;2.97;2.20;;;;;;;24.77;54.37;102904.56;5030568;28;20039;-65
2021/07/17 01:24:18;;;;;;;4.35;2.30;;;;;;;24.77;54.28;102902.75;5030112;28;20699;-64
2021/07/17 01:26:44;;;;;;;3.88;2.50;;;;;;;24.76;54.13;102902.91;5031807;28;20530;-65
2021/07/17 01:29:10;;;;;;;3.47;1.88;;;;;;;24.77;54.36;102905.44;5031411;28;20041;-65
2021/07/17 01:31:36;;;;;;;3.55;2.42;;;;;;;24.78;54.45;102903.56;5031723;28;20128;-65
2021/07/17 01:34:02;;;;;;;5.28;2.40;;;;;;;24.78;54.34;102903.56;5030737;28;20501;-65
2021/07/17 01:36:27;;;;;;;5.35;2.53;;;;;;;24.77;54.01;102905.44;5028762;28;20482;-65
2021/07/17 01:38:52;;;;;;;3.58;2.30;;;;;;;24.77;54.25;102900.06;5032227;28;20053;-65
2021/07/17 01:41:19;;;;;;;3.45;2.28;;;;;;;24.77;54.16;102900.06;5042317;28;20040;-65
2021/07/17 01:43:45;;;;;;;4.03;2.33;;;;;;;24.77;54.45;102902.75;5031817;28;20036;-65
2021/07/17 01:46:10;;;;;;;3.70;2.60;;;;;;;24.77;53.92;102902.75;5035365;28;20029;-65
2021/07/17 01:48:36;;;;;;;3.50;2.30;;;;;;;24.77;54.41;102897.38;5042424;28;20039;-65
2021/07/17 01:51:01;;;;;;;4.93;2.58;;;;;;;24.78;54.45;102892.84;5038816;28;20042;-65
2021/07/17 01:53:27;;;;;;;4.47;2.65;;;;;;;24.78;53.99;102898.22;5044028;28;20036;-65
2021/07/17 01:55:52;;;;;;;3.22;2.28;;;;;;;24.78;54.49;102899.03;5039756;28;20056;-65
2021/07/17 01:58:18;;;;;;;3.95;2.90;;;;;;;24.79;54.36;102905.25;5044537;28;20033;-65
2021/07/17 02:00:43;;;;;;;5.03;2.88;;;;;;;24.78;54.29;102903.56;5042388;28;20029;-65
2021/07/17 02:03:10;;;;;;;4.07;2.50;;;;;;;24.78;54.27;102901.72;5042153;28;20033;-65
2021/07/17 02:05:35;;;;;;;3.42;2.58;;;;;;;24.79;54.42;102897.19;5044044;28;20060;-65
2021/07/17 02:08:01;;;;;;;2.83;2.05;;;;;;;24.79;54.27;102908.75;5039715;28;20489;-65
2021/07/17 02:10:29;;;;;;;3.67;2.58;;;;;;;24.79;54.63;102905.25;5044692;28;20035;-65
2021/07/17 02:13:13;;;;;;;5.72;2.92;;;;;;;24.76;54.51;102900.22;5039651;28;20025;-65
2021/07/17 02:15:47;;;;;;;4.28;2.50;;;;;;;24.76;54.30;102902.91;5045407;28;20170;-65
2021/07/17 02:18:15;;;;;;;3.50;2.47;;;;;;;24.77;54.45;102897.38;5039641;28;20083;-65
2021/07/17 02:20:41;;;;;;;5.60;2.72;;;;;;;24.78;54.36;102904.41;5043874;28;20025;-65
2021/07/17 02:23:08;;;;;;;4.15;2.70;;;;;;;24.78;54.67;102906.25;5039622;28;20071;-65
2021/07/17 02:25:33;;;;;;;3.80;2.53;;;;;;;24.77;54.60;102902.75;5044910;28;20063;-65
2021/07/17 02:27:59;;;;;;;6.25;3.28;;;;;;;24.79;54.37;102902.56;5042474;28;20021;-65
2021/07/17 02:30:27;;;;;;;3.92;2.53;;;;;;;24.77;54.60;102896.50;5041820;28;20037;-65
2021/07/17 02:32:52;;;;;;;4.55;2.63;;;;;;;24.77;54.23;102902.75;5042339;28;20379;-65
2021/07/17 02:35:18;;;;;;;4.97;2.53;;;;;;;24.77;54.57;102902.75;5032668;28;20039;-65
2021/07/17 02:37:43;;;;;;;4.57;2.97;;;;;;;24.77;54.42;102899.19;5027426;28;20459;-65
2021/07/17 02:40:09;;;;;;;4.25;2.50;;;;;;;24.76;54.43;102895.66;5028496;28;20034;-65
2021/07/17 02:42:36;;;;;;;4.22;2.85;;;;;;;24.77;54.70;102896.50;5010494;28;20060;-65
2021/07/17 02:45:03;;;;;;;4.72;2.97;;;;;;;24.78;54.56;102898.22;5028441;28;20107;-65
2021/07/17 02:47:29;;;;;;;4.10;2.58;;;;;;;24.77;54.34;102897.38;5035755;28;20030;-65
2021/07/17 02:49:54;;;;;;;3.50;2.40;;;;;;;24.76;54.46;102889.47;5041714;28;20043;-65
2021/07/17 02:52:19;;;;;;;4.75;2.80;;;;;;;24.75;54.47;102894.00;5035194;28;20116;-65
2021/07/17 02:54:45;;;;;;;5.63;2.70;;;;;;;24.75;54.11;102890.50;5040281;28;20025;-65
2021/07/17 02:57:10;;;;;;;5.95;2.80;;;;;;;24.75;54.32;102887.81;5037473;28;20382;-65
2021/07/17 02:59:36;;;;;;;5.53;2.70;;;;;;;24.74;54.22;102884.28;5038610;28;20044;-65
2021/07/17 03:02:01;;;;;;;4.45;2.70;;;;;;;24.74;54.24;102886.13;5040068;28;20494;-65
2021/07/17 03:04:27;;;;;;;3.95;2.78;;;;;;;24.74;54.34;102888.81;5035799;28;20030;-64
2021/07/17 03:06:52;;;;;;;4.13;2.40;;;;;;;24.75;54.24;102893.19;5040710;28;20155;-64
2021/07/17 03:09:18;;;;;;;4.57;2.40;;;;;;;24.75;54.10;102890.50;5036084;28;20029;-65
2021/07/17 03:11:43;;;;;;;5.50;3.10;;;;;;;24.75;54.25;102888.63;5038437;28;20047;-65
2021/07/17 03:14:09;;;;;;;4.97;2.72;;;;;;;24.75;54.14;102887.81;5038323;28;20029;-65
2021/07/17 03:16:34;;;;;;;4.10;2.80;;;;;;;24.76;54.03;102889.47;5027121;28;20053;-65
2021/07/17 03:19:00;;;;;;;4.00;2.78;;;;;;;24.76;54.39;102892.16;5029267;28;20490;-65
2021/07/17 03:21:27;;;;;;;5.47;2.85;;;;;;;24.77;54.10;102891.13;5027893;28;20029;-65
2021/07/17 03:23:52;;;;;;;4.72;2.60;;;;;;;24.77;54.19;102883.09;5027629;28;20053;-65
2021/07/17 03:26:18;;;;;;;5.57;2.70;;;;;;;24.77;54.20;102885.78;5027844;28;20036;-64
2021/07/17 03:28:43;;;;;;;5.53;2.85;;;;;;;24.77;54.38;102892.00;5028700;28;20367;-65
2021/07/17 03:31:09;;;;;;;6.55;2.70;;;;;;;24.77;54.43;102885.78;5031255;28;20025;-65
2021/07/17 03:33:35;;;;;;;5.03;2.60;;;;;;;24.77;54.36;102885.78;5031974;28;20059;-65
2021/07/17 03:36:01;;;;;;;4.40;2.83;;;;;;;24.78;54.22;102892.84;5031109;28;20037;-64
2021/07/17 03:38:27;;;;;;;5.45;2.75;;;;;;;24.77;54.21;102885.78;5031453;28;20039;-65
2021/07/17 03:40:53;;;;;;;4.43;3.00;;;;;;;24.77;54.25;102886.63;5031901;28;20120;-65
2021/07/17 03:43:19;;;;;;;4.68;2.85;;;;;;;24.77;54.14;102886.63;5031126;28;20108;-65
2021/07/17 03:45:44;;;;;;;4.38;2.63;;;;;;;24.77;54.21;102888.44;5031892;28;20025;-65
2021/07/17 03:48:10;;;;;;;4.30;2.70;;;;;;;24.77;54.09;102894.69;5031233;28;20021;-65
2021/07/17 03:50:35;;;;;;;4.07;2.70;;;;;;;24.78;54.23;102887.47;5031617;28;20273;-65
2021/07/17 03:53:01;;;;;;;4.05;2.63;;;;;;;24.78;54.13;102887.47;5030590;28;20068;-65
2021/07/17 03:55:27;;;;;;;4.72;2.67;;;;;;;24.77;54.39;102880.41;5031820;28;20131;-65
2021/07/17 03:57:52;;;;;;;4.45;2.47;;;;;;;24.77;54.00;102891.13;5031291;28;20051;-65
2021/07/17 04:00:18;;;;;;;5.78;3.20;;;;;;;24.78;54.38;102887.47;5031145;28;20119;-65
2021/07/17 04:02:44;;;;;;;3.70;2.47;;;;;;;24.77;54.01;102883.94;5031572;28;20068;-65
2021/07/17 04:05:12;;;;;;;6.00;2.80;;;;;;;24.79;54.11;102878.41;5030706;28;20037;-65
2021/07/17 04:07:39;;;;;;;5.20;2.72;;;;;;;24.77;54.20;102880.41;5030722;28;20705;-65
2021/07/17 04:10:06;;;;;;;6.97;2.80;;;;;;;24.78;54.30;102882.09;5030380;28;20041;-65
2021/07/17 04:12:32;;;;;;;4.28;2.60;;;;;;;24.78;54.22;102882.94;5031241;28;20026;-65
2021/07/17 04:14:58;;;;;;;4.80;2.60;;;;;;;24.78;54.22;102882.09;5030762;28;20420;-65
2021/07/17 04:17:24;;;;;;;5.03;2.45;;;;;;;24.78;54.13;102885.63;5030863;28;20033;-65
2021/07/17 04:19:50;;;;;;;4.78;2.38;;;;;;;24.77;54.09;102881.28;5031412;28;20029;-65
2021/07/17 04:22:15;;;;;;;4.38;2.80;;;;;;;24.78;54.05;102879.41;5029507;28;20021;-65
2021/07/17 04:24:41;;;;;;;4.78;2.80;;;;;;;24.77;54.23;102875.03;5030785;28;20136;-65
2021/07/17 04:27:06;;;;;;;5.28;2.67;;;;;;;24.77;54.08;102885.78;5030371;28;20033;-65
2021/07/17 04:29:31;;;;;;;3.88;2.30;;;;;;;24.76;54.04;102878.75;5029286;28;20048;-65
2021/07/17 04:31:57;;;;;;;4.50;2.72;;;;;;;24.76;54.13;102874.19;5030614;28;20033;-65
2021/07/17 04:34:23;;;;;;;4.15;2.65;;;;;;;24.76;53.92;102874.19;5030229;28;20505;-65
2021/07/17 04:36:49;;;;;;;4.50;2.60;;;;;;;24.78;54.04;102876.72;5028829;28;20041;-65
2021/07/17 04:39:15;;;;;;;3.08;2.30;;;;;;;24.77;53.87;102878.59;5030624;28;20064;-65
2021/07/17 04:41:40;;;;;;;3.05;2.40;;;;;;;24.77;54.07;102872.34;5029933;28;20025;-65
2021/07/17 04:44:06;;;;;;;4.80;2.60;;;;;;;24.77;53.83;102886.63;5029951;28;20390;-65
2021/07/17 04:46:31;;;;;;;3.80;2.30;;;;;;;24.76;53.94;102868.00;5029237;28;20561;-64
2021/07/17 04:48:56;;;;;;;4.85;2.35;;;;;;;24.76;54.22;102882.25;5030416;28;20491;-64
2021/07/17 04:51:22;;;;;;;6.13;2.33;;;;;;;24.78;54.09;102892.84;5029714;28;20025;-65
2021/07/17 04:53:47;;;;;;;3.90;2.35;;;;;;;24.78;53.97;102884.78;5029745;28;20067;-65
2021/07/17 04:56:13;;;;;;;3.90;2.10;;;;;;;24.77;53.91;102880.41;5030103;28;20052;-65
2021/07/17 04:58:38;;;;;;;4.35;2.88;;;;;;;24.78;53.83;102874.88;5030170;28;20026;-64
2021/07/17 05:01:04;;;;;;;5.70;3.03;;;;;;;24.78;54.05;102882.94;5029658;28;20398;-65
2021/07/17 05:03:29;;;;;;;3.20;2.30;;;;;;;24.78;54.09;102882.09;5030318;28;20065;-64
2021/07/17 05:05:55;;;;;;;5.65;2.63;;;;;;;24.78;54.22;102884.78;5029142;28;20041;-65
2021/07/17 05:08:20;;;;;;;4.63;2.40;;;;;;;24.78;54.11;102885.63;5028167;28;20033;-65
2021/07/17 05:10:46;;;;;;;4.28;2.30;;;;;;;24.78;54.12;102887.47;5029784;28;20029;-65
2021/07/17 05:13:16;;;;;;;5.05;2.80;;;;;;;24.77;54.07;102885.78;5029727;28;20037;-65
2021/07/17 05:15:42;;;;;;;3.72;2.60;;;;;;;24.78;54.21;102887.47;5029761;28;20033;-65
2021/07/17 05:18:08;;;;;;;4.50;2.78;;;;;;;24.79;53.89;102889.13;5027779;28;20430;-65
2021/07/17 05:20:34;;;;;;;4.82;2.38;;;;;;;24.78;53.97;102893.66;5030060;28;20434;-65
2021/07/17 05:23:03;;;;;;;4.22;2.40;;;;;;;24.78;53.88;102892.84;5028912;28;20040;-64
2021/07/17 05:25:29;;;;;;;4.88;2.70;;;;;;;24.78;53.90;102888.31;5028965;28;20111;-65
2021/07/17 05:27:54;;;;;;;5.18;2.58;;;;;;;24.78;53.84;102893.66;5029812;28;20041;-65
2021/07/17 05:30:19;;;;;;;4.10;2.40;;;;;;;24.79;54.14;102897.19;5027983;28;20045;-64
2021/07/17 05:32:45;;;;;;;4.60;2.40;;;;;;;24.78;53.80;102890.97;5029061;28;20063;-65
2021/07/17 05:35:11;;;;;;;4.45;2.65;;;;;;;24.78;53.70;102893.66;5029273;28;20030;-65
2021/07/17 05:37:36;;;;;;;4.63;2.72;;;;;;;24.79;53.68;102897.19;5026844;28;20513;-65
2021/07/17 05:40:03;;;;;;;3.67;2.50;;;;;;;24.80;54.08;102896.16;5030015;28;20095;-65
2021/07/17 05:42:29;;;;;;;4.85;2.70;;;;;;;24.79;53.90;102895.34;5020996;28;21387;-65
2021/07/17 05:44:54;;;;;;;7.50;3.10;;;;;;;24.78;53.71;102893.66;5019771;28;20040;-65
2021/07/17 05:47:20;;;;;;;5.80;2.95;;;;;;;24.77;53.91;102892.00;5025206;28;20063;-65
2021/07/17 05:49:45;;;;;;;7.00;3.17;;;;;;;24.79;53.99;102897.19;5027540;28;20172;-64
2021/07/17 05:52:11;;;;;;;7.90;3.30;;;;;;;24.78;53.93;102896.34;5027960;28;20091;-65
2021/07/17 05:54:36;;;;;;;4.22;2.80;;;;;;;24.78;54.01;102893.66;5029307;28;20049;-65
2021/07/17 05:57:02;;;;;;;7.57;3.53;;;;;;;24.78;54.00;102895.53;5028732;28;20179;-65
2021/07/17 05:59:27;;;;;;;7.07;3.60;;;;;;;24.79;54.05;102897.19;5028880;28;20117;-65
2021/07/17 06:01:53;;;;;;;6.40;3.63;;;;;;;24.79;53.94;102897.19;5027769;28;20049;-64
2021/07/17 06:04:18;;;;;;;7.07;3.33;;;;;;;24.79;54.40;102897.19;5027218;28;20033;-65
2021/07/17 06:06:44;;;;;;;6.22;3.72;;;;;;;24.79;54.05;102897.19;5028282;28;20116;-65
2021/07/17 06:09:10;;;;;;;6.45;3.80;;;;;;;24.79;54.42;102899.88;5028521;28;20036;-65
2021/07/17 06:11:35;;;;;;;8.93;4.32;;;;;;;24.80;54.07;102901.53;5028172;28;20048;-65
2021/07/17 06:14:00;;;;;;;6.72;3.70;;;;;;;24.79;54.27;102905.25;5029043;28;20053;-65
2021/07/17 06:16:26;;;;;;;6.32;4.03;;;;;;;24.79;54.52;102905.25;5028167;28;20144;-65
2021/07/17 06:18:51;;;;;;;5.68;3.50;;;;;;;24.78;54.57;102901.72;5029260;28;20029;-64
2021/07/17 06:21:17;;;;;;;7.55;4.15;;;;;;;24.78;54.54;102900.88;5027962;28;20059;-65
2021/07/17 06:23:43;;;;;;;9.07;4.03;;;;;;;24.78;54.55;102907.09;5028067;28;20055;-67
2021/07/17 06:26:08;;;;;;;7.32;3.70;;;;;;;24.78;54.56;102908.94;5028310;28;20034;-64
2021/07/17 06:28:34;;;;;;;5.95;3.70;;;;;;;24.78;54.64;102909.78;5029039;28;20764;-65
2021/07/17 06:30:59;;;;;;;6.93;3.97;;;;;;;24.79;54.47;102910.59;5028509;28;20443;-65
2021/07/17 06:33:25;;;;;;;7.15;4.07;;;;;;;24.79;54.65;102921.34;5027417;28;20041;-65
2021/07/17 06:35:50;;;;;;;8.50;4.15;;;;;;;24.78;54.72;102914.31;5027474;28;20372;-65
2021/07/17 06:38:15;;;;;;;11.80;4.10;;;;;;;24.81;54.76;102921.16;5027604;28;20091;-65
2021/07/17 06:40:41;;;;;;;6.25;4.07;;;;;;;24.81;54.56;102929.22;5028539;28;20466;-65
2021/07/17 06:43:06;;;;;;;6.30;3.95;;;;;;;24.80;54.65;102920.31;5028324;28;20041;-65
2021/07/17 06:45:32;;;;;;;6.53;3.88;;;;;;;24.81;54.98;102923.84;5027027;28;20354;-65
2021/07/17 06:47:57;;;;;;;7.28;3.63;;;;;;;24.82;55.04;102929.03;5027454;28;20099;-65
2021/07/17 06:50:23;;;;;;;6.18;3.45;;;;;;;24.82;55.23;102930.88;5027230;28;20041;-65
2021/07/17 06:52:49;;;;;;;11.88;3.92;;;;;;;24.82;55.21;102926.34;5026481;28;20041;-65
2021/07/17 06:55:14;;;;;;;7.35;3.47;;;;;;;24.83;55.49;102933.38;5028021;28;20087;-65
2021/07/17 06:57:41;;;;;;;5.25;3.38;;;;;;;24.83;55.50;102928.00;5023964;28;20037;-64
2021/07/17 07:00:09;;;;;;;5.10;3.47;;;;;;;24.84;55.77;102934.22;5028950;28;20096;-64
2021/07/17 07:02:35;;;;;;;7.00;3.90;;;;;;;24.83;55.95;102935.22;5028513;28;20035;-66
2021/07/17 07:05:00;;;;;;;7.93;3.33;;;;;;;24.83;56.08;102933.38;5030207;28;20033;-66
2021/07/17 07:07:26;;;;;;;10.20;4.32;;;;;;;24.84;56.02;102939.59;5031299;28;20052;-66
2021/07/17 07:09:51;;;;;;;5.63;3.53;;;;;;;24.83;55.99;102938.75;5032254;28;20528;-67
2021/07/17 07:12:17;;;;;;;7.32;3.40;;;;;;;24.84;56.02;102942.28;5031948;28;20037;-66
2021/07/17 07:14:43;;;;;;;6.85;3.40;;;;;;;24.84;56.37;102929.69;5032148;28;20048;-67
2021/07/17 07:17:08;;;;;;;8.45;3.65;;;;;;;24.85;56.44;102934.03;5032172;28;20034;-66
2021/07/17 07:19:34;;;;;;;6.15;3.45;;;;;;;24.85;56.37;102930.50;5031737;28;20510;-66
2021/07/17 07:22:00;;;;;;;5.30;3.28;;;;;;;24.85;56.14;102930.50;5030370;28;20490;-67
2021/07/17 07:24:25;;;;;;;10.18;4.22;;;;;;;24.85;56.43;102927.84;5031305;28;20052;-67
2021/07/17 07:26:52;;;;;;;7.43;4.00;;;;;;;24.86;56.09;102926.81;5028208;28;20455;-66
2021/07/17 07:29:18;;;;;;;7.18;3.80;;;;;;;24.85;55.99;102931.34;5031086;28;20742;-66
2021/07/17 07:31:43;;;;;;;6.82;3.47;;;;;;;24.86;56.04;102933.00;5030928;28;20045;-66
2021/07/17 07:34:08;;;;;;;6.50;4.03;;;;;;;24.88;55.67;102935.53;5030731;28;20048;-66
2021/07/17 07:36:34;;;;;;;7.78;3.70;;;;;;;24.86;55.55;102933.00;5029877;28;20033;-66
2021/07/17 07:39:00;;;;;;;7.57;3.30;;;;;;;24.87;55.76;102926.63;5031205;28;20038;-66
2021/07/17 07:41:25;;;;;;;6.53;3.25;;;;;;;24.87;55.66;102934.69;5031790;28;20099;-66
2021/07/17 07:43:50;;;;;;;7.38;4.03;;;;;;;24.88;55.95;102939.03;5031165;28;20111;-67
2021/07/17 07:46:16;;;;;;;6.07;4.15;;;;;;;24.90;56.25;102938.84;5029066;28;20026;-67
2021/07/17 07:48:42;;;;;;;9.57;4.22;;;;;;;24.91;55.98;102935.16;5028450;28;20040;-67
2021/07/17 07:51:10;;;;;;;6.88;4.00;;;;;;;24.91;56.10;102938.66;5026923;28;20045;-66
2021/07/17 07:53:36;;;;;;;10.45;4.43;;;;;;;24.93;56.44;102935.78;5027722;28;20025;-66
2021/07/17 07:56:02;;;;;;;9.32;4.85;;;;;;;24.94;56.17;102945.56;5026222;28;20497;-66
2021/07/17 07:58:30;;;;;;;12.02;5.50;;;;;;;24.96;56.21;102946.19;5028031;28;20060;-66
2021/07/17 08:00:56;;;;;;;8.95;5.35;;;;;;;24.97;56.16;102937.97;5028120;28;20058;-67
2021/07/17 08:03:22;;;;;;;9.25;5.50;;;;;;;24.98;56.40;102941.47;5028118;28;20804;-66
2021/07/17 08:05:47;;;;;;;11.13;5.97;;;;;;;24.98;56.32;102936.94;5027504;28;20482;-66
2021/07/17 08:08:13;;;;;;;12.57;6.28;;;;;;;25.00;56.27;102939.47;5025370;28;20430;-66
2021/07/17 08:10:39;;;;;;;10.07;6.05;;;;;;;25.02;56.42;102942.81;5026363;28;20040;-66
2021/07/17 08:13:04;;;;;;;10.27;6.25;;;;;;;25.03;56.43;102939.09;5027339;28;20625;-67
2021/07/17 08:15:30;;;;;;;10.90;6.53;;;;;;;25.03;56.38;102939.94;5026653;28;20045;-67
2021/07/17 08:17:57;;;;;;;16.00;6.50;;;;;;;25.05;56.21;102937.06;5027468;28;20223;-65
2021/07/17 08:20:23;;;;;;;10.85;5.78;;;;;;;25.07;56.45;102932.34;5027570;28;20037;-66
2021/07/17 08:22:49;;;;;;;11.20;5.88;;;;;;;25.07;56.69;102935.03;5026339;28;20111;-66
2021/07/17 08:25:15;;;;;;;15.23;10.02;;;;;;;25.07;56.74;102941.25;5027108;28;20049;-65
2021/07/17 08:27:40;;;;;;;13.18;8.32;;;;;;;25.10;56.73;102934.69;5026913;28;20038;-66
2021/07/17 08:30:09;;;;;;;14.20;8.52;;;;;;;25.11;56.72;102939.03;5027416;28;20041;-66
2021/07/17 08:32:35;;;;;;;16.08;7.25;;;;;;;25.12;57.27;102934.50;5027121;28;20099;-66
2021/07/17 08:35:00;;;;;;;11.32;7.25;;;;;;;25.13;57.08;102934.31;5026662;28;20041;-66
2021/07/17 08:37:26;;;;;;;13.10;6.75;;;;;;;25.12;56.71;102929.97;5024463;28;20030;-65
2021/07/17 08:39:51;;;;;;;14.25;7.13;;;;;;;25.13;56.67;102931.63;5027084;28;20372;-65
2021/07/17 08:42:20;;;;;;;12.23;6.43;;;;;;;25.15;56.73;102928.78;5026673;28;20042;-67
2021/07/17 08:44:48;;;;;;;10.27;6.35;;;;;;;25.16;56.76;102935.81;5026897;28;20110;-67
2021/07/17 08:47:16;;;;;;;13.05;6.60;;;;;;;25.17;56.33;102929.41;5025753;28;20447;-66
2021/07/17 08:49:44;;;;;;;11.35;5.93;;;;;;;25.17;56.27;102927.56;5025085;28;20037;-66
2021/07/17 08:52:10;;;;;;;14.10;6.50;;;;;;;25.17;56.12;102919.50;5026117;28;20047;-68
2021/07/17 08:54:39;;;;;;;14.30;6.65;;;;;;;25.19;55.73;102927.38;5025992;28;20033;-67
2021/07/17 08:57:06;;;;;;;13.77;7.05;;;;;;;25.18;56.17;102920.34;5026431;28;20040;-67
2021/07/17 08:59:32;;;;;;;13.15;6.85;;;;;;;25.19;55.83;102919.31;5025746;28;20032;-66
2021/07/17 09:01:57;;;;;;;15.70;7.55;;;;;;;25.19;55.81;102922.84;5023644;28;20041;-65
2021/07/17 09:04:26;;;;;;;13.57;7.70;;;;;;;25.19;55.87;102919.31;5026149;28;20107;-66
2021/07/17 09:06:52;;;;;;;16.40;7.93;;;;;;;25.19;55.73;102922.84;5024757;28;20728;-67
2021/07/17 09:09:31;;;;;;;15.65;8.02;;;;;;;25.16;55.63;102927.75;5005843;28;20533;-67
2021/07/17 09:11:56;;;;;;;12.70;7.47;;;;;;;25.21;55.65;102919.97;5025889;28;20040;-68
2021/07/17 09:14:39;;;;;;;13.70;7.20;;;;;;;25.17;55.61;102921.34;5026310;28;20045;-68
2021/07/17 09:17:05;;;;;;;11.13;6.97;;;;;;;25.21;55.65;102928.03;5027010;28;20045;-67
2021/07/17 09:19:32;;;;;;;9.65;6.53;;;;;;;25.20;55.71;102927.19;5026498;28;20057;-68
2021/07/17 09:21:58;;;;;;;14.82;7.97;;;;;;;25.19;55.57;102927.38;5025517;28;20056;-68
2021/07/17 09:24:23;;;;;;;10.77;6.30;;;;;;;25.20;55.51;102918.28;5026131;28;20153;-67
2021/07/17 09:26:58;;;;;;;10.93;6.47;;;;;;;25.18;55.81;102915.78;5025086;28;20041;-68
2021/07/17 09:29:33;;;;;;;10.00;6.70;;;;;;;25.16;55.51;102928.59;5027310;28;20114;-67
2021/07/17 09:31:59;;;;;;;9.80;6.57;;;;;;;25.19;55.54;102920.16;5025957;28;20041;-68
2021/07/17 09:34:29;;;;;;;9.90;6.03;;;;;;;25.18;55.29;102923.84;5024230;28;21647;-66
2021/07/17 09:37:07;;;;;;;9.45;6.18;;;;;;;25.17;55.47;102924.88;5025191;28;20470;-66
2021/07/17 09:39:56;;;;;;;11.40;6.43;;;;;;;25.18;55.46;102917.66;5024736;28;20398;-68
2021/07/17 09:42:21;;;;;;;11.48;6.93;;;;;;;25.19;55.56;102916.63;5026362;28;20038;-66
2021/07/17 09:44:51;;;;;;;12.93;7.50;;;;;;;25.17;55.48;102913.31;5037879;28;20545;-66
2021/07/17 09:47:21;;;;;;;11.57;6.75;;;;;;;25.18;55.61;102915.78;5018653;28;20186;-71
2021/07/17 09:49:47;;;;;;;10.88;6.38;;;;;;;25.18;55.75;102915.78;5025101;28;20052;-68
2021/07/17 09:52:16;;;;;;;12.75;6.50;;;;;;;25.18;55.71;102909.59;5025571;28;20034;-68
2021/07/17 09:55:14;;;;;;;14.43;6.70;;;;;;;25.14;56.29;102911.81;5026144;28;20510;-66
2021/07/17 09:57:40;;;;;;;12.73;6.38;;;;;;;25.18;56.00;102921.16;5023507;28;20025;-64
2021/07/17 10:00:10;;;;;;;11.05;6.25;;;;;;;25.18;56.35;102918.47;5026466;28;20183;-66
2021/07/17 10:02:36;;;;;;;11.07;6.00;;;;;;;25.19;55.96;102919.31;5028661;28;20033;-66
2021/07/17 10:05:03;;;;;;;11.98;5.93;;;;;;;25.20;56.17;102918.28;5027933;28;20042;-66
2021/07/17 10:07:29;;;;;;;11.13;6.00;;;;;;;25.20;55.96;102912.94;5026779;28;20045;-66
2021/07/17 10:09:55;;;;;;;10.93;5.63;;;;;;;25.19;55.85;102909.41;5028625;28;20037;-68
2021/07/17 10:12:35;;;;;;;8.30;4.82;;;;;;;25.17;55.80;102908.75;5028329;28;20057;-67
2021/07/17 10:15:03;;;;;;;9.40;4.93;;;;;;;25.19;55.58;102901.34;5028840;28;20021;-67
2021/07/17 10:17:39;;;;;;;10.48;4.82;;;;;;;25.17;55.46;102910.63;5028226;28;20041;-67
2021/07/17 10:20:12;;;;;;;9.32;5.05;;;;;;;25.18;55.13;102904.22;5028706;28;20046;-67
2021/07/17 10:22:38;;;;;;;6.75;4.32;;;;;;;25.18;55.08;102905.06;5026565;28;20060;-66
2021/07/17 10:25:06;;;;;;;6.35;3.65;;;;;;;25.18;55.17;102906.91;5028858;28;20061;-66
2021/07/17 10:27:31;;;;;;;8.43;3.90;;;;;;;25.18;54.88;102904.22;5028345;28;20037;-67
2021/07/17 10:29:57;;;;;;;8.65;4.00;;;;;;;25.17;54.58;102902.56;5028644;28;20034;-67
2021/07/17 10:32:23;;;;;;;7.03;3.10;;;;;;;25.17;54.41;102905.25;5028292;28;20091;-67
2021/07/17 10:34:50;;;;;;;4.65;2.88;;;;;;;25.16;54.36;102898.22;5029037;28;20038;-66
2021/07/17 10:37:25;;;;;;;5.90;2.67;;;;;;;25.16;53.88;102901.72;5027468;28;20033;-67
2021/07/17 10:40:16;;;;;;;5.35;2.70;;;;;;;25.11;53.86;102895.25;5028004;28;20029;-66
2021/07/17 10:42:48;;;;;;;5.38;2.40;;;;;;;25.15;53.44;102891.16;5028127;28;20526;-66
2021/07/17 10:45:38;;;;;;;4.28;2.30;;;;;;;25.11;53.48;102887.19;5028667;28;20033;-66
2021/07/17 10:48:27;;;;;;;7.82;2.67;;;;;;;25.11;53.10;102892.56;5028496;28;20053;-66
2021/07/17 10:51:11;;;;;;;3.72;2.15;;;;;;;25.15;53.11;102878.56;5021779;28;20404;-66
2021/07/17 10:53:50;;;;;;;4.07;1.95;;;;;;;25.14;53.16;102884.13;5027801;28;20049;-67
2021/07/17 10:56:27;;;;;;;3.10;1.75;;;;;;;25.11;52.96;102882.66;5028669;28;20116;-66
2021/07/17 10:59:10;;;;;;;4.38;1.80;;;;;;;25.13;53.01;102883.28;5028266;28;20068;-66
2021/07/17 11:02:04;;;;;;;4.97;2.00;;;;;;;25.11;53.31;102884.50;5027510;28;20486;-67
2021/07/17 11:04:31;;;;;;;4.28;1.70;;;;;;;25.14;52.94;102876.91;5023355;28;20036;-67
2021/07/17 11:07:16;;;;;;;2.70;1.60;;;;;;;25.11;53.29;102873.75;5027245;28;20025;-66
2021/07/17 11:10:02;;;;;;;4.43;1.90;;;;;;;25.14;52.94;102876.91;5039259;28;20030;-66
2021/07/17 11:12:55;;;;;;;2.95;1.55;;;;;;;25.12;53.01;102872.75;5028229;28;20030;-67
2021/07/17 11:15:21;;;;;;;3.00;1.48;;;;;;;25.16;53.15;102882.09;5025790;28;20104;-66
2021/07/17 11:17:51;;;;;;;3.83;1.73;;;;;;;25.17;53.25;102873.84;5027751;28;20014;-66
2021/07/17 11:20:36;;;;;;;4.15;1.65;;;;;;;25.15;53.23;102872.38;5028516;28;20060;-66
2021/07/17 11:23:08;;;;;;;4.72;1.92;;;;;;;25.17;53.22;102875.69;5026772;28;20439;-66
2021/07/17 11:25:35;;;;;;;4.57;1.70;;;;;;;25.19;53.23;102876.34;5027342;28;20053;-67